Pagrindinis puslapis
METAR-TAF:

METAR-TAF

Oro uostai :

Frensistaunas, Botsvana

platuma: 21-13S, ilguma: 027-30E, Aukštis: 1001 m

Dabartinis oras

Ataskaita buvo paskelbta 43 minutes, ne 05:00 UTC
Vėjas 2 kt nuo kintamojo kryptimis
Temperatūra 16°C
Drėgmė 82%
Slėgis 1019 hPa
Matomumas 10 km arba daugiau
nėra debesų žemiau 1500 m ir nėra kamuolinių lietaus debesų

METAR: FBFT 010500Z VRB02KT CAVOK 16/13 Q1019

Laikas: 07:43 (05:43 UTC)

Prognozė

Ataskaita buvo paskelbta 2 valandos ir 43 minutes, ne 03:00 UTC
Prognozė galioja nuo 01 metu 06 UTC su 01 metu 15 UTC
Vėjas 8 kt iš Šiaurės Rytų
Matomumas 10 km arba daugiau
nėra debesų žemiau 1500 m ir nėra kamuolinių lietaus debesų

TAF: FBFT 010300Z 0106/0115 05008KT CAVOK

Orai ataskaitas ir orų prognozės (METAR, TAF).

turimą stotys yra geltonos ir raudonos taškus žemėlapyje.

Perkelti pele per norėdami pamatyti stoties vardą.

Tada spustelėkite, norėdami matyti oro stebėjimo ir prognozės.

Norėdami pakeisti žemėlapį: spustelėkite ant žalios mygtukų su juodo kryžiaus žemyn,; žalią mygtuką su brūkšneliu, jei norite nutolinti; arba žalių rodyklių gretimoms žemėlapius.


METAR-TAF: